National Weather Service United States Department of Commerce
Click Here for Latest Airport Weather Warnings
 
Latest Huntsville TAF


979
FTUS44 KHUN 292320
TAFHSV
TAF
KHSV 292320Z 3000/3024 30005KT P6SM FEW045
FM301600 24010G17KT P6SM SKC=

Latest Muscle Shoals TAF


987
FTUS44 KHUN 292320
TAFMSL
TAF
KMSL 292320Z 3000/3024 30005KT P6SM FEW050
FM301600 24010G16KT P6SM SKC=


Back to Main Huntsville Weather Forecast Office Page